sensor_id;sensor_type;location;lat;lon;timestamp;P1;durP1;ratioP1;P2;durP2;ratioP2
21661;SDS011;10992;48.170;8.596;2024-01-27T00:00:16;5.78;;;3.20;;
21661;SDS011;10992;48.170;8.596;2024-01-27T00:02:44;5.38;;;3.20;;
21661;SDS011;10992;48.170;8.596;2024-01-27T00:05:11;5.28;;;3.58;;
21661;SDS011;10992;48.170;8.596;2024-01-27T00:07:37;8.75;;;3.70;;
21661;SDS011;10992;48.170;8.596;2024-01-27T00:10:04;7.93;;;3.50;;
21661;SDS011;10992;48.170;8.596;2024-01-27T00:12:32;9.90;;;3.90;;
21661;SDS011;10992;48.170;8.596;2024-01-27T00:14:59;9.65;;;3.83;;
21661;SDS011;10992;48.170;8.596;2024-01-27T00:17:25;10.88;;;5.32;;
21661;SDS011;10992;48.170;8.596;2024-01-27T00:19:54;7.22;;;3.25;;
21661;SDS011;10992;48.170;8.596;2024-01-27T00:22:22;6.03;;;3.88;;
21661;SDS011;10992;48.170;8.596;2024-01-27T00:24:48;8.40;;;4.45;;
21661;SDS011;10992;48.170;8.596;2024-01-27T00:27:15;8.48;;;3.95;;
21661;SDS011;10992;48.170;8.596;2024-01-27T00:29:42;7.82;;;4.05;;
21661;SDS011;10992;48.170;8.596;2024-01-27T00:32:09;9.55;;;4.22;;
21661;SDS011;10992;48.170;8.596;2024-01-27T00:34:36;9.35;;;4.40;;
21661;SDS011;10992;48.170;8.596;2024-01-27T00:37:03;13.00;;;6.18;;
21661;SDS011;10992;48.170;8.596;2024-01-27T00:39:31;13.02;;;5.47;;
21661;SDS011;10992;48.170;8.596;2024-01-27T00:41:58;13.80;;;5.82;;
21661;SDS011;10992;48.170;8.596;2024-01-27T00:44:25;15.75;;;5.68;;
21661;SDS011;10992;48.170;8.596;2024-01-27T00:46:52;14.90;;;6.75;;
21661;SDS011;10992;48.170;8.596;2024-01-27T00:49:19;14.25;;;7.90;;
21661;SDS011;10992;48.170;8.596;2024-01-27T00:51:46;15.40;;;7.10;;
21661;SDS011;10992;48.170;8.596;2024-01-27T00:54:13;12.30;;;7.60;;
21661;SDS011;10992;48.170;8.596;2024-01-27T00:56:40;18.33;;;8.25;;
21661;SDS011;10992;48.170;8.596;2024-01-27T00:59:07;20.63;;;8.75;;
21661;SDS011;10992;48.170;8.596;2024-01-27T01:01:34;16.58;;;7.93;;
21661;SDS011;10992;48.170;8.596;2024-01-27T01:04:01;19.52;;;9.10;;
21661;SDS011;10992;48.170;8.596;2024-01-27T01:06:28;16.45;;;9.18;;
21661;SDS011;10992;48.170;8.596;2024-01-27T01:08:55;17.85;;;9.63;;
21661;SDS011;10992;48.170;8.596;2024-01-27T01:11:22;19.13;;;9.23;;
21661;SDS011;10992;48.170;8.596;2024-01-27T01:13:49;12.73;;;8.20;;
21661;SDS011;10992;48.170;8.596;2024-01-27T01:16:16;14.85;;;8.75;;
21661;SDS011;10992;48.170;8.596;2024-01-27T01:18:42;20.00;;;9.93;;
21661;SDS011;10992;48.170;8.596;2024-01-27T01:21:09;18.33;;;9.52;;
21661;SDS011;10992;48.170;8.596;2024-01-27T01:23:36;19.38;;;9.63;;
21661;SDS011;10992;48.170;8.596;2024-01-27T01:26:03;22.05;;;10.10;;
21661;SDS011;10992;48.170;8.596;2024-01-27T01:28:30;16.23;;;9.35;;
21661;SDS011;10992;48.170;8.596;2024-01-27T01:30:58;20.50;;;10.07;;
21661;SDS011;10992;48.170;8.596;2024-01-27T01:33:25;14.70;;;9.23;;
21661;SDS011;10992;48.170;8.596;2024-01-27T01:35:52;18.63;;;9.43;;
21661;SDS011;10992;48.170;8.596;2024-01-27T01:38:19;16.80;;;8.82;;
21661;SDS011;10992;48.170;8.596;2024-01-27T01:40:47;21.08;;;8.93;;
21661;SDS011;10992;48.170;8.596;2024-01-27T01:43:14;20.40;;;9.07;;
21661;SDS011;10992;48.170;8.596;2024-01-27T01:45:41;21.60;;;9.80;;
21661;SDS011;10992;48.170;8.596;2024-01-27T01:48:07;17.27;;;10.13;;
21661;SDS011;10992;48.170;8.596;2024-01-27T01:50:35;20.25;;;10.35;;
21661;SDS011;10992;48.170;8.596;2024-01-27T01:53:03;21.92;;;10.75;;
21661;SDS011;10992;48.170;8.596;2024-01-27T01:55:31;28.50;;;12.38;;
21661;SDS011;10992;48.170;8.596;2024-01-27T01:57:58;19.75;;;11.45;;
21661;SDS011;10992;48.170;8.596;2024-01-27T02:00:25;35.72;;;13.75;;
21661;SDS011;10992;48.170;8.596;2024-01-27T02:02:52;31.33;;;13.95;;
21661;SDS011;10992;48.170;8.596;2024-01-27T02:05:19;28.20;;;12.13;;
21661;SDS011;10992;48.170;8.596;2024-01-27T02:07:45;24.48;;;12.52;;
21661;SDS011;10992;48.170;8.596;2024-01-27T02:10:13;30.58;;;11.90;;
21661;SDS011;10992;48.170;8.596;2024-01-27T02:12:42;26.27;;;11.98;;
21661;SDS011;10992;48.170;8.596;2024-01-27T02:15:10;28.08;;;11.85;;
21661;SDS011;10992;48.170;8.596;2024-01-27T02:17:42;23.38;;;11.48;;
21661;SDS011;10992;48.170;8.596;2024-01-27T02:20:09;24.98;;;11.90;;
21661;SDS011;10992;48.170;8.596;2024-01-27T02:22:36;26.67;;;10.90;;
21661;SDS011;10992;48.170;8.596;2024-01-27T02:25:03;21.40;;;10.45;;
21661;SDS011;10992;48.170;8.596;2024-01-27T02:27:30;20.60;;;10.55;;
21661;SDS011;10992;48.170;8.596;2024-01-27T02:29:57;17.13;;;10.15;;
21661;SDS011;10992;48.170;8.596;2024-01-27T02:32:24;17.88;;;9.88;;
21661;SDS011;10992;48.170;8.596;2024-01-27T02:34:51;22.92;;;10.90;;
21661;SDS011;10992;48.170;8.596;2024-01-27T02:37:17;20.58;;;10.52;;
21661;SDS011;10992;48.170;8.596;2024-01-27T02:39:44;21.35;;;9.02;;
21661;SDS011;10992;48.170;8.596;2024-01-27T02:42:11;24.27;;;10.82;;
21661;SDS011;10992;48.170;8.596;2024-01-27T02:44:39;20.58;;;11.15;;
21661;SDS011;10992;48.170;8.596;2024-01-27T02:47:05;18.02;;;8.98;;
21661;SDS011;10992;48.170;8.596;2024-01-27T02:49:32;25.40;;;11.25;;
21661;SDS011;10992;48.170;8.596;2024-01-27T02:51:59;17.55;;;10.73;;
21661;SDS011;10992;48.170;8.596;2024-01-27T02:54:26;17.05;;;10.07;;
21661;SDS011;10992;48.170;8.596;2024-01-27T02:56:53;19.25;;;9.50;;
21661;SDS011;10992;48.170;8.596;2024-01-27T02:59:20;17.73;;;9.38;;
21661;SDS011;10992;48.170;8.596;2024-01-27T03:01:47;18.90;;;9.95;;
21661;SDS011;10992;48.170;8.596;2024-01-27T03:04:14;21.98;;;10.45;;
21661;SDS011;10992;48.170;8.596;2024-01-27T03:06:41;24.30;;;10.68;;
21661;SDS011;10992;48.170;8.596;2024-01-27T03:09:08;20.48;;;10.07;;
21661;SDS011;10992;48.170;8.596;2024-01-27T03:11:36;21.10;;;10.10;;
21661;SDS011;10992;48.170;8.596;2024-01-27T03:14:03;18.20;;;9.68;;
21661;SDS011;10992;48.170;8.596;2024-01-27T03:16:30;18.40;;;10.18;;
21661;SDS011;10992;48.170;8.596;2024-01-27T03:18:58;17.08;;;9.70;;
21661;SDS011;10992;48.170;8.596;2024-01-27T03:21:25;18.50;;;9.60;;
21661;SDS011;10992;48.170;8.596;2024-01-27T03:23:53;20.48;;;10.52;;
21661;SDS011;10992;48.170;8.596;2024-01-27T03:26:20;22.30;;;11.18;;
21661;SDS011;10992;48.170;8.596;2024-01-27T03:28:47;22.27;;;11.50;;
21661;SDS011;10992;48.170;8.596;2024-01-27T03:31:14;15.95;;;9.55;;
21661;SDS011;10992;48.170;8.596;2024-01-27T03:33:41;21.33;;;12.05;;
21661;SDS011;10992;48.170;8.596;2024-01-27T03:36:12;29.52;;;12.63;;
21661;SDS011;10992;48.170;8.596;2024-01-27T03:38:42;23.55;;;11.63;;
21661;SDS011;10992;48.170;8.596;2024-01-27T03:41:09;26.52;;;12.55;;
21661;SDS011;10992;48.170;8.596;2024-01-27T03:43:36;23.30;;;11.48;;
21661;SDS011;10992;48.170;8.596;2024-01-27T03:46:03;28.55;;;13.52;;
21661;SDS011;10992;48.170;8.596;2024-01-27T03:48:30;25.85;;;12.88;;
21661;SDS011;10992;48.170;8.596;2024-01-27T03:50:57;24.40;;;11.70;;
21661;SDS011;10992;48.170;8.596;2024-01-27T03:53:24;23.17;;;12.15;;
21661;SDS011;10992;48.170;8.596;2024-01-27T03:55:51;24.33;;;12.80;;
21661;SDS011;10992;48.170;8.596;2024-01-27T03:58:18;25.90;;;13.05;;
21661;SDS011;10992;48.170;8.596;2024-01-27T04:00:45;21.60;;;12.20;;
21661;SDS011;10992;48.170;8.596;2024-01-27T04:03:12;26.15;;;12.57;;
21661;SDS011;10992;48.170;8.596;2024-01-27T04:05:39;33.88;;;13.23;;
21661;SDS011;10992;48.170;8.596;2024-01-27T04:08:06;32.47;;;13.73;;
21661;SDS011;10992;48.170;8.596;2024-01-27T04:10:33;26.55;;;14.02;;
21661;SDS011;10992;48.170;8.596;2024-01-27T04:13:00;28.30;;;13.15;;
21661;SDS011;10992;48.170;8.596;2024-01-27T04:15:27;31.70;;;14.18;;
21661;SDS011;10992;48.170;8.596;2024-01-27T04:17:55;33.40;;;13.57;;
21661;SDS011;10992;48.170;8.596;2024-01-27T04:20:22;27.20;;;12.65;;
21661;SDS011;10992;48.170;8.596;2024-01-27T04:22:49;26.42;;;13.10;;
21661;SDS011;10992;48.170;8.596;2024-01-27T04:25:16;22.23;;;11.15;;
21661;SDS011;10992;48.170;8.596;2024-01-27T04:27:43;17.45;;;10.43;;
21661;SDS011;10992;48.170;8.596;2024-01-27T04:30:10;20.58;;;10.98;;
21661;SDS011;10992;48.170;8.596;2024-01-27T04:32:38;19.45;;;10.65;;
21661;SDS011;10992;48.170;8.596;2024-01-27T04:35:08;26.92;;;12.85;;
21661;SDS011;10992;48.170;8.596;2024-01-27T04:37:36;30.15;;;14.30;;
21661;SDS011;10992;48.170;8.596;2024-01-27T04:40:04;26.98;;;14.10;;
21661;SDS011;10992;48.170;8.596;2024-01-27T04:42:34;32.83;;;15.02;;
21661;SDS011;10992;48.170;8.596;2024-01-27T04:45:06;25.50;;;13.10;;
21661;SDS011;10992;48.170;8.596;2024-01-27T04:47:34;27.88;;;13.43;;
21661;SDS011;10992;48.170;8.596;2024-01-27T04:50:01;26.98;;;13.10;;
21661;SDS011;10992;48.170;8.596;2024-01-27T04:52:29;23.27;;;11.82;;
21661;SDS011;10992;48.170;8.596;2024-01-27T04:54:57;19.20;;;11.73;;
21661;SDS011;10992;48.170;8.596;2024-01-27T04:57:24;23.40;;;12.45;;
21661;SDS011;10992;48.170;8.596;2024-01-27T04:59:51;25.92;;;12.25;;
21661;SDS011;10992;48.170;8.596;2024-01-27T05:02:18;21.27;;;10.88;;
21661;SDS011;10992;48.170;8.596;2024-01-27T05:04:45;25.50;;;11.98;;
21661;SDS011;10992;48.170;8.596;2024-01-27T05:07:12;21.05;;;10.63;;
21661;SDS011;10992;48.170;8.596;2024-01-27T05:09:39;20.45;;;10.25;;
21661;SDS011;10992;48.170;8.596;2024-01-27T05:12:06;22.85;;;11.60;;
21661;SDS011;10992;48.170;8.596;2024-01-27T05:14:33;27.98;;;11.38;;
21661;SDS011;10992;48.170;8.596;2024-01-27T05:17:00;22.02;;;10.35;;
21661;SDS011;10992;48.170;8.596;2024-01-27T05:19:27;19.95;;;10.40;;
21661;SDS011;10992;48.170;8.596;2024-01-27T05:21:54;22.52;;;11.02;;
21661;SDS011;10992;48.170;8.596;2024-01-27T05:24:20;25.73;;;12.88;;
21661;SDS011;10992;48.170;8.596;2024-01-27T05:26:47;18.42;;;10.48;;
21661;SDS011;10992;48.170;8.596;2024-01-27T05:29:14;22.30;;;12.25;;
21661;SDS011;10992;48.170;8.596;2024-01-27T05:31:41;23.75;;;11.60;;
21661;SDS011;10992;48.170;8.596;2024-01-27T05:34:10;31.27;;;14.10;;
21661;SDS011;10992;48.170;8.596;2024-01-27T05:36:37;102.82;;;19.35;;
21661;SDS011;10992;48.170;8.596;2024-01-27T05:39:04;283.67;;;28.65;;
21661;SDS011;10992;48.170;8.596;2024-01-27T05:41:32;203.88;;;25.85;;
21661;SDS011;10992;48.170;8.596;2024-01-27T05:43:59;184.30;;;22.13;;
21661;SDS011;10992;48.170;8.596;2024-01-27T05:46:26;181.70;;;22.40;;
21661;SDS011;10992;48.170;8.596;2024-01-27T05:48:52;148.57;;;19.00;;
21661;SDS011;10992;48.170;8.596;2024-01-27T05:51:28;71.57;;;16.17;;
21661;SDS011;10992;48.170;8.596;2024-01-27T05:53:56;56.05;;;17.42;;
21661;SDS011;10992;48.170;8.596;2024-01-27T05:56:23;44.67;;;17.42;;
21661;SDS011;10992;48.170;8.596;2024-01-27T05:58:50;73.57;;;18.58;;
21661;SDS011;10992;48.170;8.596;2024-01-27T06:01:17;51.50;;;16.52;;
21661;SDS011;10992;48.170;8.596;2024-01-27T06:03:45;38.40;;;15.65;;
21661;SDS011;10992;48.170;8.596;2024-01-27T06:06:12;39.28;;;15.40;;
21661;SDS011;10992;48.170;8.596;2024-01-27T06:08:40;35.92;;;16.23;;
21661;SDS011;10992;48.170;8.596;2024-01-27T06:11:07;31.20;;;15.20;;
21661;SDS011;10992;48.170;8.596;2024-01-27T06:13:36;35.75;;;14.77;;
21661;SDS011;10992;48.170;8.596;2024-01-27T06:16:08;32.97;;;15.07;;
21661;SDS011;10992;48.170;8.596;2024-01-27T06:18:38;32.22;;;14.85;;
21661;SDS011;10992;48.170;8.596;2024-01-27T06:21:05;29.67;;;14.30;;
21661;SDS011;10992;48.170;8.596;2024-01-27T06:23:33;29.90;;;14.23;;
21661;SDS011;10992;48.170;8.596;2024-01-27T06:26:04;33.10;;;14.40;;
21661;SDS011;10992;48.170;8.596;2024-01-27T06:28:35;36.70;;;15.23;;
21661;SDS011;10992;48.170;8.596;2024-01-27T06:31:03;32.30;;;15.73;;
21661;SDS011;10992;48.170;8.596;2024-01-27T06:33:30;30.10;;;14.95;;
21661;SDS011;10992;48.170;8.596;2024-01-27T06:35:58;38.90;;;17.38;;
21661;SDS011;10992;48.170;8.596;2024-01-27T06:38:26;34.75;;;17.20;;
21661;SDS011;10992;48.170;8.596;2024-01-27T06:40:54;30.95;;;14.98;;
21661;SDS011;10992;48.170;8.596;2024-01-27T06:43:21;34.67;;;17.65;;
21661;SDS011;10992;48.170;8.596;2024-01-27T06:45:47;32.45;;;16.98;;
21661;SDS011;10992;48.170;8.596;2024-01-27T06:48:14;40.03;;;18.95;;
21661;SDS011;10992;48.170;8.596;2024-01-27T06:50:41;37.42;;;22.10;;
21661;SDS011;10992;48.170;8.596;2024-01-27T06:53:08;37.97;;;19.23;;
21661;SDS011;10992;48.170;8.596;2024-01-27T06:55:37;42.63;;;18.45;;
21661;SDS011;10992;48.170;8.596;2024-01-27T06:58:08;38.95;;;19.60;;
21661;SDS011;10992;48.170;8.596;2024-01-27T07:00:35;40.95;;;20.63;;
21661;SDS011;10992;48.170;8.596;2024-01-27T07:03:02;41.92;;;20.27;;
21661;SDS011;10992;48.170;8.596;2024-01-27T07:05:30;35.53;;;18.45;;
21661;SDS011;10992;48.170;8.596;2024-01-27T07:07:59;37.05;;;17.73;;
21661;SDS011;10992;48.170;8.596;2024-01-27T07:10:26;42.38;;;19.40;;
21661;SDS011;10992;48.170;8.596;2024-01-27T07:12:53;47.45;;;18.70;;
21661;SDS011;10992;48.170;8.596;2024-01-27T07:15:20;56.10;;;18.98;;
21661;SDS011;10992;48.170;8.596;2024-01-27T07:17:48;42.88;;;17.30;;
21661;SDS011;10992;48.170;8.596;2024-01-27T07:20:15;41.22;;;18.38;;
21661;SDS011;10992;48.170;8.596;2024-01-27T07:22:42;43.38;;;18.98;;
21661;SDS011;10992;48.170;8.596;2024-01-27T07:25:08;87.03;;;21.75;;
21661;SDS011;10992;48.170;8.596;2024-01-27T07:27:36;163.30;;;22.95;;
21661;SDS011;10992;48.170;8.596;2024-01-27T07:30:04;58.13;;;18.92;;
21661;SDS011;10992;48.170;8.596;2024-01-27T07:32:32;39.50;;;14.05;;
21661;SDS011;10992;48.170;8.596;2024-01-27T07:34:59;33.35;;;13.57;;
21661;SDS011;10992;48.170;8.596;2024-01-27T07:37:26;112.65;;;15.75;;
21661;SDS011;10992;48.170;8.596;2024-01-27T07:39:53;51.38;;;13.82;;
21661;SDS011;10992;48.170;8.596;2024-01-27T07:42:20;80.13;;;13.50;;
21661;SDS011;10992;48.170;8.596;2024-01-27T07:44:47;54.03;;;14.80;;
21661;SDS011;10992;48.170;8.596;2024-01-27T07:47:15;61.30;;;16.70;;
21661;SDS011;10992;48.170;8.596;2024-01-27T07:49:43;41.97;;;14.32;;
21661;SDS011;10992;48.170;8.596;2024-01-27T07:52:11;56.70;;;14.18;;
21661;SDS011;10992;48.170;8.596;2024-01-27T07:54:38;52.70;;;14.45;;
21661;SDS011;10992;48.170;8.596;2024-01-27T07:57:06;49.08;;;14.93;;
21661;SDS011;10992;48.170;8.596;2024-01-27T07:59:33;54.15;;;12.07;;
21661;SDS011;10992;48.170;8.596;2024-01-27T08:02:00;22.30;;;11.07;;
21661;SDS011;10992;48.170;8.596;2024-01-27T08:04:28;55.08;;;12.68;;
21661;SDS011;10992;48.170;8.596;2024-01-27T08:06:55;45.47;;;12.55;;
21661;SDS011;10992;48.170;8.596;2024-01-27T08:09:22;36.97;;;11.82;;
21661;SDS011;10992;48.170;8.596;2024-01-27T08:11:50;20.98;;;10.05;;
21661;SDS011;10992;48.170;8.596;2024-01-27T08:14:20;23.13;;;10.90;;
21661;SDS011;10992;48.170;8.596;2024-01-27T08:16:47;44.67;;;11.68;;
21661;SDS011;10992;48.170;8.596;2024-01-27T08:19:14;48.75;;;12.70;;
21661;SDS011;10992;48.170;8.596;2024-01-27T08:21:47;29.27;;;11.65;;
21661;SDS011;10992;48.170;8.596;2024-01-27T08:24:14;35.20;;;12.40;;
21661;SDS011;10992;48.170;8.596;2024-01-27T08:26:42;68.90;;;17.55;;
21661;SDS011;10992;48.170;8.596;2024-01-27T08:29:09;41.88;;;14.15;;
21661;SDS011;10992;48.170;8.596;2024-01-27T08:31:36;41.58;;;14.32;;
21661;SDS011;10992;48.170;8.596;2024-01-27T08:34:06;42.15;;;10.95;;
21661;SDS011;10992;48.170;8.596;2024-01-27T08:36:34;31.83;;;11.40;;
21661;SDS011;10992;48.170;8.596;2024-01-27T08:39:01;29.52;;;12.75;;
21661;SDS011;10992;48.170;8.596;2024-01-27T08:41:28;29.67;;;12.88;;
21661;SDS011;10992;48.170;8.596;2024-01-27T08:43:55;21.08;;;11.43;;
21661;SDS011;10992;48.170;8.596;2024-01-27T08:46:22;19.70;;;11.23;;
21661;SDS011;10992;48.170;8.596;2024-01-27T08:48:49;15.25;;;8.80;;
21661;SDS011;10992;48.170;8.596;2024-01-27T08:51:16;15.48;;;9.52;;
21661;SDS011;10992;48.170;8.596;2024-01-27T08:53:44;31.58;;;10.15;;
21661;SDS011;10992;48.170;8.596;2024-01-27T08:56:17;17.27;;;8.35;;
21661;SDS011;10992;48.170;8.596;2024-01-27T08:58:44;18.75;;;10.23;;
21661;SDS011;10992;48.170;8.596;2024-01-27T09:01:15;19.50;;;9.40;;
21661;SDS011;10992;48.170;8.596;2024-01-27T09:03:43;17.15;;;9.85;;
21661;SDS011;10992;48.170;8.596;2024-01-27T09:06:10;23.73;;;10.02;;
21661;SDS011;10992;48.170;8.596;2024-01-27T09:08:38;14.18;;;9.70;;
21661;SDS011;10992;48.170;8.596;2024-01-27T09:11:04;25.25;;;9.65;;
21661;SDS011;10992;48.170;8.596;2024-01-27T09:13:32;20.13;;;10.05;;
21661;SDS011;10992;48.170;8.596;2024-01-27T09:16:03;13.20;;;7.03;;
21661;SDS011;10992;48.170;8.596;2024-01-27T09:18:29;15.13;;;8.13;;
21661;SDS011;10992;48.170;8.596;2024-01-27T09:20:57;8.88;;;6.72;;
21661;SDS011;10992;48.170;8.596;2024-01-27T09:23:24;14.05;;;7.05;;
21661;SDS011;10992;48.170;8.596;2024-01-27T09:25:51;38.08;;;7.32;;
21661;SDS011;10992;48.170;8.596;2024-01-27T09:28:17;9.10;;;6.35;;
21661;SDS011;10992;48.170;8.596;2024-01-27T09:30:44;14.00;;;6.97;;
21661;SDS011;10992;48.170;8.596;2024-01-27T09:33:11;8.38;;;6.28;;
21661;SDS011;10992;48.170;8.596;2024-01-27T09:35:39;15.77;;;5.47;;
21661;SDS011;10992;48.170;8.596;2024-01-27T09:38:05;8.60;;;5.10;;
21661;SDS011;10992;48.170;8.596;2024-01-27T09:40:38;13.70;;;5.55;;
21661;SDS011;10992;48.170;8.596;2024-01-27T09:43:05;10.02;;;5.70;;
21661;SDS011;10992;48.170;8.596;2024-01-27T09:45:35;9.63;;;5.40;;
21661;SDS011;10992;48.170;8.596;2024-01-27T09:48:02;12.02;;;4.70;;
21661;SDS011;10992;48.170;8.596;2024-01-27T09:50:30;5.82;;;4.80;;
21661;SDS011;10992;48.170;8.596;2024-01-27T09:52:57;7.50;;;4.25;;
21661;SDS011;10992;48.170;8.596;2024-01-27T09:55:24;6.28;;;4.63;;
21661;SDS011;10992;48.170;8.596;2024-01-27T09:57:51;9.52;;;4.88;;
21661;SDS011;10992;48.170;8.596;2024-01-27T10:00:18;10.10;;;5.20;;
21661;SDS011;10992;48.170;8.596;2024-01-27T10:02:46;9.82;;;5.15;;
21661;SDS011;10992;48.170;8.596;2024-01-27T10:05:14;10.05;;;5.97;;
21661;SDS011;10992;48.170;8.596;2024-01-27T10:07:42;6.00;;;4.57;;
21661;SDS011;10992;48.170;8.596;2024-01-27T10:10:09;6.80;;;4.80;;
21661;SDS011;10992;48.170;8.596;2024-01-27T10:12:38;8.77;;;5.20;;
21661;SDS011;10992;48.170;8.596;2024-01-27T10:15:20;6.50;;;5.10;;
21661;SDS011;10992;48.170;8.596;2024-01-27T10:17:48;6.90;;;5.45;;
21661;SDS011;10992;48.170;8.596;2024-01-27T10:20:15;9.18;;;4.93;;
21661;SDS011;10992;48.170;8.596;2024-01-27T10:22:44;6.47;;;4.03;;
21661;SDS011;10992;48.170;8.596;2024-01-27T10:25:11;5.65;;;4.30;;
21661;SDS011;10992;48.170;8.596;2024-01-27T10:27:38;6.78;;;4.90;;
21661;SDS011;10992;48.170;8.596;2024-01-27T10:30:07;8.10;;;5.20;;
21661;SDS011;10992;48.170;8.596;2024-01-27T10:32:42;5.35;;;4.53;;
21661;SDS011;10992;48.170;8.596;2024-01-27T10:35:09;7.65;;;4.50;;
21661;SDS011;10992;48.170;8.596;2024-01-27T10:37:36;5.95;;;4.60;;
21661;SDS011;10992;48.170;8.596;2024-01-27T10:40:04;7.90;;;5.03;;
21661;SDS011;10992;48.170;8.596;2024-01-27T10:42:42;6.97;;;5.47;;
21661;SDS011;10992;48.170;8.596;2024-01-27T10:45:11;6.05;;;4.07;;
21661;SDS011;10992;48.170;8.596;2024-01-27T10:47:39;7.15;;;5.25;;
21661;SDS011;10992;48.170;8.596;2024-01-27T10:50:07;8.35;;;5.85;;
21661;SDS011;10992;48.170;8.596;2024-01-27T10:52:39;8.52;;;6.50;;
21661;SDS011;10992;48.170;8.596;2024-01-27T10:55:09;7.90;;;5.68;;
21661;SDS011;10992;48.170;8.596;2024-01-27T10:57:37;8.20;;;5.72;;
21661;SDS011;10992;48.170;8.596;2024-01-27T11:00:05;10.85;;;7.88;;
21661;SDS011;10992;48.170;8.596;2024-01-27T11:02:33;9.13;;;7.38;;
21661;SDS011;10992;48.170;8.596;2024-01-27T11:05:03;7.93;;;4.90;;
21661;SDS011;10992;48.170;8.596;2024-01-27T11:07:34;8.63;;;5.00;;
21661;SDS011;10992;48.170;8.596;2024-01-27T11:10:01;6.40;;;4.20;;
21661;SDS011;10992;48.170;8.596;2024-01-27T11:12:29;7.38;;;5.82;;
21661;SDS011;10992;48.170;8.596;2024-01-27T11:14:57;6.85;;;4.80;;
21661;SDS011;10992;48.170;8.596;2024-01-27T11:17:27;5.95;;;3.55;;
21661;SDS011;10992;48.170;8.596;2024-01-27T11:19:55;9.23;;;4.40;;
21661;SDS011;10992;48.170;8.596;2024-01-27T11:22:26;5.97;;;4.20;;
21661;SDS011;10992;48.170;8.596;2024-01-27T11:25:07;7.82;;;4.82;;
21661;SDS011;10992;48.170;8.596;2024-01-27T11:27:41;5.05;;;3.83;;
21661;SDS011;10992;48.170;8.596;2024-01-27T11:32:56;8.10;;;4.20;;
21661;SDS011;10992;48.170;8.596;2024-01-27T11:35:24;10.52;;;7.60;;
21661;SDS011;10992;48.170;8.596;2024-01-27T11:37:51;11.73;;;8.52;;
21661;SDS011;10992;48.170;8.596;2024-01-27T11:40:18;12.57;;;8.27;;
21661;SDS011;10992;48.170;8.596;2024-01-27T11:42:54;9.57;;;7.13;;
21661;SDS011;10992;48.170;8.596;2024-01-27T11:45:23;13.27;;;8.68;;
21661;SDS011;10992;48.170;8.596;2024-01-27T11:47:50;10.30;;;8.10;;
21661;SDS011;10992;48.170;8.596;2024-01-27T11:50:17;10.77;;;8.27;;
21661;SDS011;10992;48.170;8.596;2024-01-27T11:52:45;12.05;;;9.18;;
21661;SDS011;10992;48.170;8.596;2024-01-27T11:55:11;12.73;;;9.25;;
21661;SDS011;10992;48.170;8.596;2024-01-27T11:57:39;9.88;;;8.25;;
21661;SDS011;10992;48.170;8.596;2024-01-27T12:00:06;10.13;;;7.65;;
21661;SDS011;10992;48.170;8.596;2024-01-27T12:02:33;10.48;;;7.80;;
21661;SDS011;10992;48.170;8.596;2024-01-27T12:05:00;9.05;;;7.15;;
21661;SDS011;10992;48.170;8.596;2024-01-27T12:07:29;8.00;;;7.15;;
21661;SDS011;10992;48.170;8.596;2024-01-27T12:09:56;10.52;;;7.30;;
21661;SDS011;10992;48.170;8.596;2024-01-27T12:12:23;9.23;;;7.80;;
21661;SDS011;10992;48.170;8.596;2024-01-27T12:14:50;9.88;;;7.57;;
21661;SDS011;10992;48.170;8.596;2024-01-27T12:17:18;9.02;;;6.88;;
21661;SDS011;10992;48.170;8.596;2024-01-27T12:19:46;7.93;;;6.45;;
21661;SDS011;10992;48.170;8.596;2024-01-27T12:22:21;8.48;;;6.35;;
21661;SDS011;10992;48.170;8.596;2024-01-27T12:24:53;8.13;;;6.93;;
21661;SDS011;10992;48.170;8.596;2024-01-27T12:27:34;8.43;;;5.90;;
21661;SDS011;10992;48.170;8.596;2024-01-27T12:30:02;8.73;;;6.18;;
21661;SDS011;10992;48.170;8.596;2024-01-27T12:32:31;6.45;;;5.00;;
21661;SDS011;10992;48.170;8.596;2024-01-27T12:35:04;8.40;;;4.80;;
21661;SDS011;10992;48.170;8.596;2024-01-27T12:37:33;6.93;;;4.25;;
21661;SDS011;10992;48.170;8.596;2024-01-27T12:40:01;6.10;;;4.03;;
21661;SDS011;10992;48.170;8.596;2024-01-27T12:42:27;5.40;;;3.90;;
21661;SDS011;10992;48.170;8.596;2024-01-27T12:44:54;6.35;;;4.57;;
21661;SDS011;10992;48.170;8.596;2024-01-27T12:47:21;5.20;;;4.22;;
21661;SDS011;10992;48.170;8.596;2024-01-27T12:49:48;6.53;;;4.25;;
21661;SDS011;10992;48.170;8.596;2024-01-27T12:52:15;5.40;;;4.32;;
21661;SDS011;10992;48.170;8.596;2024-01-27T12:54:42;5.75;;;4.47;;
21661;SDS011;10992;48.170;8.596;2024-01-27T12:57:10;6.80;;;4.93;;
21661;SDS011;10992;48.170;8.596;2024-01-27T12:59:38;7.57;;;5.22;;
21661;SDS011;10992;48.170;8.596;2024-01-27T13:02:05;4.75;;;3.95;;
21661;SDS011;10992;48.170;8.596;2024-01-27T13:04:31;4.50;;;3.88;;
21661;SDS011;10992;48.170;8.596;2024-01-27T13:06:59;6.10;;;3.50;;
21661;SDS011;10992;48.170;8.596;2024-01-27T13:09:26;5.63;;;3.60;;
21661;SDS011;10992;48.170;8.596;2024-01-27T13:11:53;5.47;;;3.42;;
21661;SDS011;10992;48.170;8.596;2024-01-27T13:14:20;6.35;;;2.63;;
21661;SDS011;10992;48.170;8.596;2024-01-27T13:16:47;3.97;;;2.80;;
21661;SDS011;10992;48.170;8.596;2024-01-27T13:19:14;4.38;;;2.55;;
21661;SDS011;10992;48.170;8.596;2024-01-27T13:21:41;5.75;;;2.67;;
21661;SDS011;10992;48.170;8.596;2024-01-27T13:24:08;5.07;;;3.13;;
21661;SDS011;10992;48.170;8.596;2024-01-27T13:26:35;5.60;;;2.85;;
21661;SDS011;10992;48.170;8.596;2024-01-27T13:29:05;5.25;;;2.58;;
21661;SDS011;10992;48.170;8.596;2024-01-27T13:31:32;4.78;;;2.75;;
21661;SDS011;10992;48.170;8.596;2024-01-27T13:34:00;6.50;;;3.35;;
21661;SDS011;10992;48.170;8.596;2024-01-27T13:36:28;4.88;;;3.17;;
21661;SDS011;10992;48.170;8.596;2024-01-27T13:38:55;3.63;;;2.67;;
21661;SDS011;10992;48.170;8.596;2024-01-27T13:41:23;4.55;;;2.38;;
21661;SDS011;10992;48.170;8.596;2024-01-27T13:43:49;5.75;;;3.33;;
21661;SDS011;10992;48.170;8.596;2024-01-27T13:46:16;4.32;;;2.70;;
21661;SDS011;10992;48.170;8.596;2024-01-27T13:48:43;4.15;;;2.92;;
21661;SDS011;10992;48.170;8.596;2024-01-27T13:51:10;4.22;;;2.88;;
21661;SDS011;10992;48.170;8.596;2024-01-27T13:53:37;4.18;;;2.80;;
21661;SDS011;10992;48.170;8.596;2024-01-27T13:56:13;5.80;;;2.95;;
21661;SDS011;10992;48.170;8.596;2024-01-27T13:58:40;5.07;;;3.00;;
21661;SDS011;10992;48.170;8.596;2024-01-27T14:01:07;4.28;;;2.92;;
21661;SDS011;10992;48.170;8.596;2024-01-27T14:03:35;7.45;;;3.72;;
21661;SDS011;10992;48.170;8.596;2024-01-27T14:06:04;4.20;;;3.30;;
21661;SDS011;10992;48.170;8.596;2024-01-27T14:08:32;5.55;;;3.00;;
21661;SDS011;10992;48.170;8.596;2024-01-27T14:11:00;4.47;;;3.03;;
21661;SDS011;10992;48.170;8.596;2024-01-27T14:13:26;5.60;;;2.90;;
21661;SDS011;10992;48.170;8.596;2024-01-27T14:15:53;5.43;;;3.38;;
21661;SDS011;10992;48.170;8.596;2024-01-27T14:18:20;4.13;;;3.03;;
21661;SDS011;10992;48.170;8.596;2024-01-27T14:20:48;6.18;;;3.50;;
21661;SDS011;10992;48.170;8.596;2024-01-27T14:23:17;5.13;;;3.75;;
21661;SDS011;10992;48.170;8.596;2024-01-27T14:25:43;8.43;;;3.42;;
21661;SDS011;10992;48.170;8.596;2024-01-27T14:28:13;7.60;;;4.00;;
21661;SDS011;10992;48.170;8.596;2024-01-27T14:30:41;6.43;;;4.05;;
21661;SDS011;10992;48.170;8.596;2024-01-27T14:33:08;5.50;;;4.38;;
21661;SDS011;10992;48.170;8.596;2024-01-27T14:35:35;6.65;;;4.10;;
21661;SDS011;10992;48.170;8.596;2024-01-27T14:38:02;5.30;;;4.28;;